sensor_id;sensor_type;location;lat;lon;timestamp;temperature;humidity
9437;DHT22;4757;59.334;18.034;2024-02-26T00:02:25;1.60;99.90
9437;DHT22;4757;59.334;18.034;2024-02-26T00:04:53;1.70;99.90
9437;DHT22;4757;59.334;18.034;2024-02-26T00:07:20;1.70;99.90
9437;DHT22;4757;59.334;18.034;2024-02-26T00:09:47;1.80;99.90
9437;DHT22;4757;59.334;18.034;2024-02-26T00:12:14;1.80;99.90
9437;DHT22;4757;59.334;18.034;2024-02-26T00:14:41;1.60;99.90
9437;DHT22;4757;59.334;18.034;2024-02-26T00:17:09;1.60;99.90
9437;DHT22;4757;59.334;18.034;2024-02-26T00:19:36;1.90;99.90
9437;DHT22;4757;59.334;18.034;2024-02-26T00:22:03;3.40;99.90
9437;DHT22;4757;59.334;18.034;2024-02-26T00:24:31;2.00;99.90
9437;DHT22;4757;59.334;18.034;2024-02-26T00:26:59;2.00;99.90
9437;DHT22;4757;59.334;18.034;2024-02-26T00:29:26;2.00;99.90
9437;DHT22;4757;59.334;18.034;2024-02-26T00:31:54;2.00;99.90
9437;DHT22;4757;59.334;18.034;2024-02-26T00:34:21;2.00;99.90
9437;DHT22;4757;59.334;18.034;2024-02-26T00:36:51;2.00;99.90
9437;DHT22;4757;59.334;18.034;2024-02-26T00:39:21;1.90;99.90
9437;DHT22;4757;59.334;18.034;2024-02-26T00:41:48;2.30;99.90
9437;DHT22;4757;59.334;18.034;2024-02-26T00:44:15;2.00;99.90
9437;DHT22;4757;59.334;18.034;2024-02-26T00:46:43;2.10;99.90
9437;DHT22;4757;59.334;18.034;2024-02-26T00:49:10;2.10;99.90
9437;DHT22;4757;59.334;18.034;2024-02-26T00:51:37;2.10;99.90
9437;DHT22;4757;59.334;18.034;2024-02-26T00:54:05;2.00;99.90
9437;DHT22;4757;59.334;18.034;2024-02-26T00:56:33;2.20;99.90
9437;DHT22;4757;59.334;18.034;2024-02-26T00:59:00;2.30;99.90
9437;DHT22;4757;59.334;18.034;2024-02-26T01:01:27;2.10;99.90
9437;DHT22;4757;59.334;18.034;2024-02-26T01:03:55;2.00;99.90
9437;DHT22;4757;59.334;18.034;2024-02-26T01:06:23;0.40;99.90
9437;DHT22;4757;59.334;18.034;2024-02-26T01:08:51;1.90;99.90
9437;DHT22;4757;59.334;18.034;2024-02-26T01:11:18;2.10;99.90
9437;DHT22;4757;59.334;18.034;2024-02-26T01:13:45;2.30;99.90
9437;DHT22;4757;59.334;18.034;2024-02-26T01:16:12;2.30;99.90
9437;DHT22;4757;59.334;18.034;2024-02-26T01:18:42;2.10;99.90
9437;DHT22;4757;59.334;18.034;2024-02-26T01:21:09;2.10;99.90
9437;DHT22;4757;59.334;18.034;2024-02-26T01:23:36;2.10;99.90
9437;DHT22;4757;59.334;18.034;2024-02-26T01:26:04;2.30;99.90
9437;DHT22;4757;59.334;18.034;2024-02-26T01:28:31;2.40;99.90
9437;DHT22;4757;59.334;18.034;2024-02-26T01:30:58;2.40;99.90
9437;DHT22;4757;59.334;18.034;2024-02-26T01:33:26;2.40;99.90
9437;DHT22;4757;59.334;18.034;2024-02-26T01:35:54;2.40;99.90
9437;DHT22;4757;59.334;18.034;2024-02-26T01:38:21;2.50;99.90
9437;DHT22;4757;59.334;18.034;2024-02-26T01:40:48;2.60;99.90
9437;DHT22;4757;59.334;18.034;2024-02-26T01:43:15;2.70;99.90
9437;DHT22;4757;59.334;18.034;2024-02-26T01:45:42;2.60;99.90
9437;DHT22;4757;59.334;18.034;2024-02-26T01:48:10;2.70;99.90
9437;DHT22;4757;59.334;18.034;2024-02-26T01:50:40;2.50;99.90
9437;DHT22;4757;59.334;18.034;2024-02-26T01:53:08;2.30;99.90
9437;DHT22;4757;59.334;18.034;2024-02-26T01:55:37;2.20;99.90
9437;DHT22;4757;59.334;18.034;2024-02-26T01:58:05;2.20;99.90
9437;DHT22;4757;59.334;18.034;2024-02-26T02:00:37;0.70;99.90
9437;DHT22;4757;59.334;18.034;2024-02-26T02:03:06;2.00;99.90
9437;DHT22;4757;59.334;18.034;2024-02-26T02:05:34;2.30;99.90
9437;DHT22;4757;59.334;18.034;2024-02-26T02:08:13;2.70;99.90
9437;DHT22;4757;59.334;18.034;2024-02-26T02:10:42;2.80;99.90
9437;DHT22;4757;59.334;18.034;2024-02-26T02:13:13;1.80;99.90
9437;DHT22;4757;59.334;18.034;2024-02-26T02:15:41;2.90;99.90
9437;DHT22;4757;59.334;18.034;2024-02-26T02:18:08;2.80;99.90
9437;DHT22;4757;59.334;18.034;2024-02-26T02:20:36;2.80;99.90
9437;DHT22;4757;59.334;18.034;2024-02-26T02:23:03;2.80;99.90
9437;DHT22;4757;59.334;18.034;2024-02-26T02:25:31;2.90;99.90
9437;DHT22;4757;59.334;18.034;2024-02-26T02:27:58;2.90;99.90
9437;DHT22;4757;59.334;18.034;2024-02-26T02:30:28;3.00;99.90
9437;DHT22;4757;59.334;18.034;2024-02-26T02:32:57;3.00;99.90
9437;DHT22;4757;59.334;18.034;2024-02-26T02:35:25;3.10;99.90
9437;DHT22;4757;59.334;18.034;2024-02-26T02:37:53;3.10;99.90
9437;DHT22;4757;59.334;18.034;2024-02-26T02:40:20;2.90;99.90
9437;DHT22;4757;59.334;18.034;2024-02-26T02:42:47;3.00;99.90
9437;DHT22;4757;59.334;18.034;2024-02-26T02:45:14;3.20;99.90
9437;DHT22;4757;59.334;18.034;2024-02-26T02:47:41;3.00;99.90
9437;DHT22;4757;59.334;18.034;2024-02-26T02:50:09;2.70;99.90
9437;DHT22;4757;59.334;18.034;2024-02-26T02:52:36;2.50;99.90
9437;DHT22;4757;59.334;18.034;2024-02-26T02:55:04;2.40;99.90
9437;DHT22;4757;59.334;18.034;2024-02-26T02:57:31;2.40;99.90
9437;DHT22;4757;59.334;18.034;2024-02-26T02:59:59;2.40;99.90
9437;DHT22;4757;59.334;18.034;2024-02-26T03:02:26;2.30;99.90
9437;DHT22;4757;59.334;18.034;2024-02-26T03:04:53;2.40;99.90
9437;DHT22;4757;59.334;18.034;2024-02-26T03:07:20;2.50;99.90
9437;DHT22;4757;59.334;18.034;2024-02-26T03:09:48;2.60;99.90
9437;DHT22;4757;59.334;18.034;2024-02-26T03:12:15;2.50;99.90
9437;DHT22;4757;59.334;18.034;2024-02-26T03:14:44;2.50;99.90
9437;DHT22;4757;59.334;18.034;2024-02-26T03:17:12;2.40;99.90
9437;DHT22;4757;59.334;18.034;2024-02-26T03:19:39;2.40;99.90
9437;DHT22;4757;59.334;18.034;2024-02-26T03:22:07;2.30;99.90
9437;DHT22;4757;59.334;18.034;2024-02-26T03:24:34;2.20;99.90
9437;DHT22;4757;59.334;18.034;2024-02-26T03:27:01;2.30;99.90
9437;DHT22;4757;59.334;18.034;2024-02-26T03:29:29;2.40;99.90
9437;DHT22;4757;59.334;18.034;2024-02-26T03:31:56;2.30;99.90
9437;DHT22;4757;59.334;18.034;2024-02-26T03:34:23;2.30;99.90
9437;DHT22;4757;59.334;18.034;2024-02-26T03:36:50;2.30;99.90
9437;DHT22;4757;59.334;18.034;2024-02-26T03:39:18;2.40;99.90
9437;DHT22;4757;59.334;18.034;2024-02-26T03:41:45;2.50;99.90
9437;DHT22;4757;59.334;18.034;2024-02-26T03:44:12;2.60;99.90
9437;DHT22;4757;59.334;18.034;2024-02-26T03:46:39;2.60;99.90
9437;DHT22;4757;59.334;18.034;2024-02-26T03:49:06;2.50;99.90
9437;DHT22;4757;59.334;18.034;2024-02-26T03:51:33;2.50;99.90
9437;DHT22;4757;59.334;18.034;2024-02-26T03:54:01;2.40;99.90
9437;DHT22;4757;59.334;18.034;2024-02-26T03:56:28;2.40;99.90
9437;DHT22;4757;59.334;18.034;2024-02-26T03:58:55;2.40;99.90
9437;DHT22;4757;59.334;18.034;2024-02-26T04:01:23;2.40;99.90
9437;DHT22;4757;59.334;18.034;2024-02-26T04:03:50;2.70;99.90
9437;DHT22;4757;59.334;18.034;2024-02-26T04:06:17;2.70;99.90
9437;DHT22;4757;59.334;18.034;2024-02-26T04:08:50;2.60;99.90
9437;DHT22;4757;59.334;18.034;2024-02-26T04:11:20;2.60;99.90
9437;DHT22;4757;59.334;18.034;2024-02-26T04:13:47;2.70;99.90
9437;DHT22;4757;59.334;18.034;2024-02-26T04:16:16;2.60;99.90
9437;DHT22;4757;59.334;18.034;2024-02-26T04:18:43;2.40;99.90
9437;DHT22;4757;59.334;18.034;2024-02-26T04:21:10;2.40;99.90
9437;DHT22;4757;59.334;18.034;2024-02-26T04:23:37;2.30;99.90
9437;DHT22;4757;59.334;18.034;2024-02-26T04:26:05;2.30;99.90
9437;DHT22;4757;59.334;18.034;2024-02-26T04:28:32;2.40;99.90
9437;DHT22;4757;59.334;18.034;2024-02-26T04:30:59;2.40;99.90
9437;DHT22;4757;59.334;18.034;2024-02-26T04:33:26;2.30;99.90
9437;DHT22;4757;59.334;18.034;2024-02-26T04:35:54;2.30;99.90
9437;DHT22;4757;59.334;18.034;2024-02-26T04:38:21;2.40;99.90
9437;DHT22;4757;59.334;18.034;2024-02-26T04:40:49;2.20;99.90
9437;DHT22;4757;59.334;18.034;2024-02-26T04:43:16;2.10;99.90
9437;DHT22;4757;59.334;18.034;2024-02-26T04:45:45;2.10;99.90
9437;DHT22;4757;59.334;18.034;2024-02-26T04:48:12;2.10;99.90
9437;DHT22;4757;59.334;18.034;2024-02-26T04:50:39;2.10;99.90
9437;DHT22;4757;59.334;18.034;2024-02-26T04:53:06;2.20;99.90
9437;DHT22;4757;59.334;18.034;2024-02-26T04:55:33;2.30;99.90
9437;DHT22;4757;59.334;18.034;2024-02-26T04:58:00;2.40;99.90
9437;DHT22;4757;59.334;18.034;2024-02-26T05:00:27;2.50;99.90
9437;DHT22;4757;59.334;18.034;2024-02-26T05:02:54;2.50;99.90
9437;DHT22;4757;59.334;18.034;2024-02-26T05:05:22;2.60;99.90
9437;DHT22;4757;59.334;18.034;2024-02-26T05:07:51;2.50;99.90
9437;DHT22;4757;59.334;18.034;2024-02-26T05:10:19;2.50;99.90
9437;DHT22;4757;59.334;18.034;2024-02-26T05:12:46;2.60;99.90
9437;DHT22;4757;59.334;18.034;2024-02-26T05:15:13;2.40;99.90
9437;DHT22;4757;59.334;18.034;2024-02-26T05:17:45;2.40;99.90
9437;DHT22;4757;59.334;18.034;2024-02-26T05:20:12;2.40;99.90
9437;DHT22;4757;59.334;18.034;2024-02-26T05:22:40;2.40;99.90
9437;DHT22;4757;59.334;18.034;2024-02-26T05:25:07;2.60;99.90
9437;DHT22;4757;59.334;18.034;2024-02-26T05:27:34;2.60;99.90
9437;DHT22;4757;59.334;18.034;2024-02-26T05:30:01;2.40;99.90
9437;DHT22;4757;59.334;18.034;2024-02-26T05:32:28;2.40;99.90
9437;DHT22;4757;59.334;18.034;2024-02-26T05:34:55;2.40;99.90
9437;DHT22;4757;59.334;18.034;2024-02-26T05:37:23;2.40;99.90
9437;DHT22;4757;59.334;18.034;2024-02-26T05:39:50;2.30;99.90
9437;DHT22;4757;59.334;18.034;2024-02-26T05:42:19;2.50;99.90
9437;DHT22;4757;59.334;18.034;2024-02-26T05:44:47;2.50;99.90
9437;DHT22;4757;59.334;18.034;2024-02-26T05:47:14;2.40;99.90
9437;DHT22;4757;59.334;18.034;2024-02-26T05:49:41;2.30;99.90
9437;DHT22;4757;59.334;18.034;2024-02-26T05:52:08;2.40;99.90
9437;DHT22;4757;59.334;18.034;2024-02-26T05:54:39;2.40;99.90
9437;DHT22;4757;59.334;18.034;2024-02-26T05:57:06;2.50;99.90
9437;DHT22;4757;59.334;18.034;2024-02-26T05:59:34;2.30;99.90
9437;DHT22;4757;59.334;18.034;2024-02-26T06:02:01;2.30;99.90
9437;DHT22;4757;59.334;18.034;2024-02-26T06:04:28;2.40;99.90
9437;DHT22;4757;59.334;18.034;2024-02-26T06:06:56;2.40;99.90
9437;DHT22;4757;59.334;18.034;2024-02-26T06:09:24;2.30;99.90
9437;DHT22;4757;59.334;18.034;2024-02-26T06:11:51;2.30;99.90
9437;DHT22;4757;59.334;18.034;2024-02-26T06:14:28;2.30;99.90
9437;DHT22;4757;59.334;18.034;2024-02-26T06:16:57;2.20;99.90
9437;DHT22;4757;59.334;18.034;2024-02-26T06:19:25;2.50;99.90
9437;DHT22;4757;59.334;18.034;2024-02-26T06:21:52;2.30;99.90
9437;DHT22;4757;59.334;18.034;2024-02-26T06:24:19;1.30;99.90
9437;DHT22;4757;59.334;18.034;2024-02-26T06:26:49;2.40;99.90
9437;DHT22;4757;59.334;18.034;2024-02-26T06:29:16;2.40;99.90
9437;DHT22;4757;59.334;18.034;2024-02-26T06:31:44;2.40;99.90
9437;DHT22;4757;59.334;18.034;2024-02-26T06:34:12;2.40;99.90
9437;DHT22;4757;59.334;18.034;2024-02-26T06:36:39;2.30;99.90
9437;DHT22;4757;59.334;18.034;2024-02-26T06:39:08;2.10;99.90
9437;DHT22;4757;59.334;18.034;2024-02-26T06:41:37;2.40;99.90
9437;DHT22;4757;59.334;18.034;2024-02-26T06:44:06;2.40;99.90
9437;DHT22;4757;59.334;18.034;2024-02-26T06:46:36;2.50;99.90
9437;DHT22;4757;59.334;18.034;2024-02-26T06:49:12;2.40;99.90
9437;DHT22;4757;59.334;18.034;2024-02-26T06:51:39;2.50;99.90
9437;DHT22;4757;59.334;18.034;2024-02-26T06:54:10;1.80;99.90
9437;DHT22;4757;59.334;18.034;2024-02-26T06:56:38;2.50;99.90
9437;DHT22;4757;59.334;18.034;2024-02-26T06:59:09;2.40;99.90
9437;DHT22;4757;59.334;18.034;2024-02-26T07:01:43;2.50;99.90
9437;DHT22;4757;59.334;18.034;2024-02-26T07:04:10;2.50;99.90
9437;DHT22;4757;59.334;18.034;2024-02-26T07:06:38;2.50;99.90
9437;DHT22;4757;59.334;18.034;2024-02-26T07:09:05;2.50;99.90
9437;DHT22;4757;59.334;18.034;2024-02-26T07:11:33;2.50;99.90
9437;DHT22;4757;59.334;18.034;2024-02-26T07:14:00;2.60;99.90
9437;DHT22;4757;59.334;18.034;2024-02-26T07:16:28;2.70;99.90
9437;DHT22;4757;59.334;18.034;2024-02-26T07:18:56;2.30;99.90
9437;DHT22;4757;59.334;18.034;2024-02-26T07:21:23;2.70;99.90
9437;DHT22;4757;59.334;18.034;2024-02-26T07:23:52;2.70;99.90
9437;DHT22;4757;59.334;18.034;2024-02-26T07:26:21;2.60;99.90
9437;DHT22;4757;59.334;18.034;2024-02-26T07:28:48;2.60;99.90
9437;DHT22;4757;59.334;18.034;2024-02-26T07:31:15;2.50;99.90
9437;DHT22;4757;59.334;18.034;2024-02-26T07:33:42;2.50;99.90
9437;DHT22;4757;59.334;18.034;2024-02-26T07:36:13;2.50;99.90
9437;DHT22;4757;59.334;18.034;2024-02-26T07:38:40;2.70;99.90
9437;DHT22;4757;59.334;18.034;2024-02-26T07:41:11;2.70;99.90
9437;DHT22;4757;59.334;18.034;2024-02-26T07:43:39;2.80;99.90
9437;DHT22;4757;59.334;18.034;2024-02-26T07:46:12;2.70;99.90
9437;DHT22;4757;59.334;18.034;2024-02-26T07:48:40;2.80;99.90
9437;DHT22;4757;59.334;18.034;2024-02-26T07:51:14;2.90;99.90
9437;DHT22;4757;59.334;18.034;2024-02-26T07:53:42;3.00;99.90
9437;DHT22;4757;59.334;18.034;2024-02-26T07:56:11;3.00;99.90
9437;DHT22;4757;59.334;18.034;2024-02-26T07:58:39;2.90;99.90
9437;DHT22;4757;59.334;18.034;2024-02-26T08:01:08;3.10;99.90
9437;DHT22;4757;59.334;18.034;2024-02-26T08:03:37;3.10;99.90
9437;DHT22;4757;59.334;18.034;2024-02-26T08:06:04;3.20;99.90
9437;DHT22;4757;59.334;18.034;2024-02-26T08:08:34;3.10;99.90
9437;DHT22;4757;59.334;18.034;2024-02-26T08:11:01;3.90;99.90
9437;DHT22;4757;59.334;18.034;2024-02-26T08:13:28;3.20;99.90
9437;DHT22;4757;59.334;18.034;2024-02-26T08:15:55;3.20;99.90
9437;DHT22;4757;59.334;18.034;2024-02-26T08:18:23;3.00;99.90
9437;DHT22;4757;59.334;18.034;2024-02-26T08:20:51;3.10;99.90
9437;DHT22;4757;59.334;18.034;2024-02-26T08:23:18;3.20;99.90
9437;DHT22;4757;59.334;18.034;2024-02-26T08:25:45;3.30;99.90
9437;DHT22;4757;59.334;18.034;2024-02-26T08:28:13;3.50;99.90
9437;DHT22;4757;59.334;18.034;2024-02-26T08:30:41;3.50;99.90
9437;DHT22;4757;59.334;18.034;2024-02-26T08:33:08;3.40;99.90
9437;DHT22;4757;59.334;18.034;2024-02-26T08:35:36;3.40;99.90
9437;DHT22;4757;59.334;18.034;2024-02-26T08:38:03;3.30;99.90
9437;DHT22;4757;59.334;18.034;2024-02-26T08:40:30;3.40;99.90
9437;DHT22;4757;59.334;18.034;2024-02-26T08:43:01;2.00;99.90
9437;DHT22;4757;59.334;18.034;2024-02-26T08:45:28;3.50;99.90
9437;DHT22;4757;59.334;18.034;2024-02-26T08:47:56;3.40;99.90
9437;DHT22;4757;59.334;18.034;2024-02-26T08:50:25;3.40;99.90
9437;DHT22;4757;59.334;18.034;2024-02-26T08:52:53;3.60;99.90
9437;DHT22;4757;59.334;18.034;2024-02-26T08:55:22;3.60;99.90
9437;DHT22;4757;59.334;18.034;2024-02-26T08:57:49;3.80;99.90
9437;DHT22;4757;59.334;18.034;2024-02-26T09:00:17;3.90;99.90
9437;DHT22;4757;59.334;18.034;2024-02-26T09:02:49;3.90;99.90
9437;DHT22;4757;59.334;18.034;2024-02-26T09:05:17;4.00;99.90
9437;DHT22;4757;59.334;18.034;2024-02-26T09:07:49;3.90;99.90
9437;DHT22;4757;59.334;18.034;2024-02-26T09:10:23;4.00;99.90
9437;DHT22;4757;59.334;18.034;2024-02-26T09:12:50;4.90;99.90
9437;DHT22;4757;59.334;18.034;2024-02-26T09:15:17;4.00;99.90
9437;DHT22;4757;59.334;18.034;2024-02-26T09:17:44;4.10;99.90
9437;DHT22;4757;59.334;18.034;2024-02-26T09:20:12;4.00;99.90
9437;DHT22;4757;59.334;18.034;2024-02-26T09:22:42;4.00;99.90
9437;DHT22;4757;59.334;18.034;2024-02-26T09:25:09;3.90;99.90
9437;DHT22;4757;59.334;18.034;2024-02-26T09:27:36;3.90;99.90
9437;DHT22;4757;59.334;18.034;2024-02-26T09:30:12;3.90;99.90
9437;DHT22;4757;59.334;18.034;2024-02-26T09:32:40;3.80;99.90
9437;DHT22;4757;59.334;18.034;2024-02-26T09:35:08;3.70;99.90
9437;DHT22;4757;59.334;18.034;2024-02-26T09:37:36;3.70;99.90
9437;DHT22;4757;59.334;18.034;2024-02-26T09:40:04;3.70;99.90
9437;DHT22;4757;59.334;18.034;2024-02-26T09:42:34;3.60;99.90
9437;DHT22;4757;59.334;18.034;2024-02-26T09:45:06;3.50;99.90
9437;DHT22;4757;59.334;18.034;2024-02-26T09:47:36;3.60;99.90
9437;DHT22;4757;59.334;18.034;2024-02-26T09:50:09;3.80;99.90
9437;DHT22;4757;59.334;18.034;2024-02-26T09:52:37;3.90;99.90
9437;DHT22;4757;59.334;18.034;2024-02-26T09:55:05;3.60;99.90
9437;DHT22;4757;59.334;18.034;2024-02-26T09:57:36;3.60;99.90
9437;DHT22;4757;59.334;18.034;2024-02-26T10:00:04;3.70;99.90
9437;DHT22;4757;59.334;18.034;2024-02-26T10:02:39;3.80;99.90
9437;DHT22;4757;59.334;18.034;2024-02-26T10:05:10;3.80;99.90
9437;DHT22;4757;59.334;18.034;2024-02-26T10:07:39;3.70;99.90
9437;DHT22;4757;59.334;18.034;2024-02-26T10:10:08;4.00;99.90
9437;DHT22;4757;59.334;18.034;2024-02-26T10:12:35;4.00;99.90
9437;DHT22;4757;59.334;18.034;2024-02-26T10:15:03;4.10;99.90
9437;DHT22;4757;59.334;18.034;2024-02-26T10:17:30;4.20;99.90
9437;DHT22;4757;59.334;18.034;2024-02-26T10:20:15;4.10;99.90
9437;DHT22;4757;59.334;18.034;2024-02-26T10:22:47;4.30;99.90
9437;DHT22;4757;59.334;18.034;2024-02-26T10:25:14;4.20;99.90
9437;DHT22;4757;59.334;18.034;2024-02-26T10:27:47;4.10;99.90
9437;DHT22;4757;59.334;18.034;2024-02-26T10:30:22;5.10;99.90
9437;DHT22;4757;59.334;18.034;2024-02-26T10:32:52;4.20;99.90
9437;DHT22;4757;59.334;18.034;2024-02-26T10:35:24;4.20;99.90
9437;DHT22;4757;59.334;18.034;2024-02-26T10:37:53;4.20;99.90
9437;DHT22;4757;59.334;18.034;2024-02-26T10:40:21;4.20;99.90
9437;DHT22;4757;59.334;18.034;2024-02-26T10:42:48;4.20;99.90
9437;DHT22;4757;59.334;18.034;2024-02-26T10:45:16;4.10;99.90
9437;DHT22;4757;59.334;18.034;2024-02-26T10:47:43;3.90;99.90
9437;DHT22;4757;59.334;18.034;2024-02-26T10:50:13;3.90;99.90
9437;DHT22;4757;59.334;18.034;2024-02-26T10:52:42;4.00;99.90
9437;DHT22;4757;59.334;18.034;2024-02-26T10:55:15;4.10;99.90
9437;DHT22;4757;59.334;18.034;2024-02-26T10:57:47;4.10;99.90
9437;DHT22;4757;59.334;18.034;2024-02-26T11:00:16;4.10;99.90
9437;DHT22;4757;59.334;18.034;2024-02-26T11:02:45;4.10;99.90
9437;DHT22;4757;59.334;18.034;2024-02-26T11:05:14;4.00;99.90
9437;DHT22;4757;59.334;18.034;2024-02-26T11:07:43;3.90;99.90
9437;DHT22;4757;59.334;18.034;2024-02-26T11:10:12;3.90;99.90
9437;DHT22;4757;59.334;18.034;2024-02-26T11:12:39;4.00;99.90
9437;DHT22;4757;59.334;18.034;2024-02-26T11:15:08;4.00;99.90
9437;DHT22;4757;59.334;18.034;2024-02-26T11:17:38;4.10;99.90
9437;DHT22;4757;59.334;18.034;2024-02-26T11:20:09;4.10;99.90
9437;DHT22;4757;59.334;18.034;2024-02-26T11:22:38;4.30;99.90
9437;DHT22;4757;59.334;18.034;2024-02-26T11:25:07;4.40;99.90
9437;DHT22;4757;59.334;18.034;2024-02-26T11:27:44;4.40;99.90
9437;DHT22;4757;59.334;18.034;2024-02-26T11:30:16;4.40;99.90
9437;DHT22;4757;59.334;18.034;2024-02-26T11:32:47;4.40;99.90
9437;DHT22;4757;59.334;18.034;2024-02-26T11:35:16;4.40;99.90
9437;DHT22;4757;59.334;18.034;2024-02-26T11:37:57;4.40;99.90
9437;DHT22;4757;59.334;18.034;2024-02-26T11:40:25;4.40;99.90
9437;DHT22;4757;59.334;18.034;2024-02-26T11:42:56;4.50;99.90
9437;DHT22;4757;59.334;18.034;2024-02-26T11:48:15;4.40;99.90
9437;DHT22;4757;59.334;18.034;2024-02-26T11:50:45;4.30;99.90
9437;DHT22;4757;59.334;18.034;2024-02-26T11:53:30;4.30;99.90
9437;DHT22;4757;59.334;18.034;2024-02-26T11:56:22;4.30;99.90
9437;DHT22;4757;59.334;18.034;2024-02-26T12:01:39;4.30;99.90
9437;DHT22;4757;59.334;18.034;2024-02-26T12:04:27;4.30;99.90
9437;DHT22;4757;59.334;18.034;2024-02-26T12:07:03;4.30;99.90
9437;DHT22;4757;59.334;18.034;2024-02-26T12:09:41;4.30;99.90
9437;DHT22;4757;59.334;18.034;2024-02-26T12:12:11;4.20;99.90
9437;DHT22;4757;59.334;18.034;2024-02-26T12:14:51;4.50;99.90
9437;DHT22;4757;59.334;18.034;2024-02-26T12:17:20;3.30;99.90
9437;DHT22;4757;59.334;18.034;2024-02-26T12:19:50;4.30;99.90
9437;DHT22;4757;59.334;18.034;2024-02-26T12:22:21;4.30;99.90
9437;DHT22;4757;59.334;18.034;2024-02-26T12:24:58;4.40;99.90
9437;DHT22;4757;59.334;18.034;2024-02-26T12:27:28;4.30;99.90
9437;DHT22;4757;59.334;18.034;2024-02-26T12:29:55;4.30;99.90
9437;DHT22;4757;59.334;18.034;2024-02-26T12:32:23;4.30;99.90
9437;DHT22;4757;59.334;18.034;2024-02-26T12:34:52;4.40;99.90
9437;DHT22;4757;59.334;18.034;2024-02-26T12:37:20;4.50;99.90
9437;DHT22;4757;59.334;18.034;2024-02-26T12:39:47;4.50;99.90
9437;DHT22;4757;59.334;18.034;2024-02-26T12:42:14;4.40;99.90
9437;DHT22;4757;59.334;18.034;2024-02-26T12:44:49;4.30;99.90
9437;DHT22;4757;59.334;18.034;2024-02-26T12:47:22;4.30;99.90
9437;DHT22;4757;59.334;18.034;2024-02-26T12:49:52;4.40;99.90
9437;DHT22;4757;59.334;18.034;2024-02-26T12:52:34;4.20;99.90
9437;DHT22;4757;59.334;18.034;2024-02-26T12:55:02;4.60;99.90
9437;DHT22;4757;59.334;18.034;2024-02-26T12:57:33;4.70;99.90
9437;DHT22;4757;59.334;18.034;2024-02-26T13:00:08;4.60;99.90
9437;DHT22;4757;59.334;18.034;2024-02-26T13:02:39;4.60;99.90
9437;DHT22;4757;59.334;18.034;2024-02-26T13:05:07;4.70;99.90
9437;DHT22;4757;59.334;18.034;2024-02-26T13:07:41;4.90;99.90
9437;DHT22;4757;59.334;18.034;2024-02-26T13:10:09;4.90;99.90
9437;DHT22;4757;59.334;18.034;2024-02-26T13:12:49;5.00;99.90
9437;DHT22;4757;59.334;18.034;2024-02-26T13:15:22;4.90;99.90
9437;DHT22;4757;59.334;18.034;2024-02-26T13:17:52;5.00;99.90
9437;DHT22;4757;59.334;18.034;2024-02-26T13:20:30;5.20;99.90
9437;DHT22;4757;59.334;18.034;2024-02-26T13:39:23;5.50;99.90
9437;DHT22;4757;59.334;18.034;2024-02-26T13:42:05;5.50;99.90
9437;DHT22;4757;59.334;18.034;2024-02-26T13:44:33;4.90;99.90
9437;DHT22;4757;59.334;18.034;2024-02-26T13:47:21;5.50;99.90
9437;DHT22;4757;59.334;18.034;2024-02-26T13:49:48;5.40;99.90
9437;DHT22;4757;59.334;18.034;2024-02-26T14:47:56;4.70;99.90
9437;DHT22;4757;59.334;18.034;2024-02-26T14:50:24;4.60;99.90
9437;DHT22;4757;59.334;18.034;2024-02-26T14:52:52;4.70;99.90
9437;DHT22;4757;59.334;18.034;2024-02-26T14:55:26;4.70;99.90
9437;DHT22;4757;59.334;18.034;2024-02-26T15:10:28;4.70;99.90
9437;DHT22;4757;59.334;18.034;2024-02-26T15:28:52;5.10;99.90
9437;DHT22;4757;59.334;18.034;2024-02-26T15:39:40;4.80;99.90
9437;DHT22;4757;59.334;18.034;2024-02-26T16:06:12;4.40;99.90
9437;DHT22;4757;59.334;18.034;2024-02-26T16:08:55;4.40;99.90
9437;DHT22;4757;59.334;18.034;2024-02-26T16:11:22;4.00;99.90
9437;DHT22;4757;59.334;18.034;2024-02-26T16:14:02;4.10;99.90
9437;DHT22;4757;59.334;18.034;2024-02-26T16:16:34;4.20;99.90
9437;DHT22;4757;59.334;18.034;2024-02-26T16:19:07;4.20;99.90
9437;DHT22;4757;59.334;18.034;2024-02-26T16:21:35;4.20;99.90
9437;DHT22;4757;59.334;18.034;2024-02-26T16:24:03;4.10;99.90
9437;DHT22;4757;59.334;18.034;2024-02-26T16:26:30;4.20;99.90
9437;DHT22;4757;59.334;18.034;2024-02-26T16:28:58;4.20;99.90
9437;DHT22;4757;59.334;18.034;2024-02-26T16:31:25;4.20;99.90
9437;DHT22;4757;59.334;18.034;2024-02-26T16:33:52;4.10;99.90
9437;DHT22;4757;59.334;18.034;2024-02-26T16:36:19;4.20;99.90
9437;DHT22;4757;59.334;18.034;2024-02-26T16:38:47;4.10;99.90
9437;DHT22;4757;59.334;18.034;2024-02-26T16:41:14;4.00;99.90
9437;DHT22;4757;59.334;18.034;2024-02-26T16:43:41;4.10;99.90
9437;DHT22;4757;59.334;18.034;2024-02-26T16:46:08;4.10;99.90
9437;DHT22;4757;59.334;18.034;2024-02-26T16:48:35;4.10;99.90
9437;DHT22;4757;59.334;18.034;2024-02-26T16:51:03;4.00;99.90
9437;DHT22;4757;59.334;18.034;2024-02-26T16:53:31;2.90;99.90
9437;DHT22;4757;59.334;18.034;2024-02-26T16:55:58;4.00;99.90
9437;DHT22;4757;59.334;18.034;2024-02-26T16:58:30;3.90;99.90
9437;DHT22;4757;59.334;18.034;2024-02-26T17:00:57;3.90;99.90
9437;DHT22;4757;59.334;18.034;2024-02-26T17:03:24;4.00;99.90
9437;DHT22;4757;59.334;18.034;2024-02-26T17:05:51;4.10;99.90
9437;DHT22;4757;59.334;18.034;2024-02-26T17:08:19;4.10;99.90
9437;DHT22;4757;59.334;18.034;2024-02-26T17:10:48;4.10;99.90
9437;DHT22;4757;59.334;18.034;2024-02-26T17:13:16;4.10;99.90
9437;DHT22;4757;59.334;18.034;2024-02-26T17:15:44;4.00;99.90
9437;DHT22;4757;59.334;18.034;2024-02-26T17:18:11;4.00;99.90
9437;DHT22;4757;59.334;18.034;2024-02-26T17:20:40;3.90;99.90
9437;DHT22;4757;59.334;18.034;2024-02-26T17:23:07;3.90;99.90
9437;DHT22;4757;59.334;18.034;2024-02-26T17:25:35;3.80;99.90
9437;DHT22;4757;59.334;18.034;2024-02-26T17:28:03;3.80;99.90
9437;DHT22;4757;59.334;18.034;2024-02-26T17:30:31;3.80;99.90
9437;DHT22;4757;59.334;18.034;2024-02-26T17:32:58;3.70;99.90
9437;DHT22;4757;59.334;18.034;2024-02-26T17:35:26;3.30;99.90
9437;DHT22;4757;59.334;18.034;2024-02-26T17:37:53;3.70;99.90
9437;DHT22;4757;59.334;18.034;2024-02-26T17:40:20;3.60;99.90
9437;DHT22;4757;59.334;18.034;2024-02-26T17:42:48;3.60;99.90
9437;DHT22;4757;59.334;18.034;2024-02-26T17:45:15;3.60;99.90
9437;DHT22;4757;59.334;18.034;2024-02-26T17:47:45;3.60;99.90
9437;DHT22;4757;59.334;18.034;2024-02-26T17:50:13;3.70;99.90
9437;DHT22;4757;59.334;18.034;2024-02-26T17:52:41;3.70;99.90
9437;DHT22;4757;59.334;18.034;2024-02-26T17:55:09;3.60;99.90
9437;DHT22;4757;59.334;18.034;2024-02-26T17:57:37;3.60;99.90
9437;DHT22;4757;59.334;18.034;2024-02-26T18:00:05;3.50;99.90
9437;DHT22;4757;59.334;18.034;2024-02-26T18:02:33;3.50;99.90
9437;DHT22;4757;59.334;18.034;2024-02-26T18:05:00;3.50;99.90
9437;DHT22;4757;59.334;18.034;2024-02-26T18:07:27;3.40;99.90
9437;DHT22;4757;59.334;18.034;2024-02-26T18:09:54;3.40;99.90
9437;DHT22;4757;59.334;18.034;2024-02-26T18:12:21;3.40;99.90
9437;DHT22;4757;59.334;18.034;2024-02-26T18:14:49;3.40;99.90
9437;DHT22;4757;59.334;18.034;2024-02-26T18:17:16;3.30;99.90
9437;DHT22;4757;59.334;18.034;2024-02-26T18:19:45;3.30;99.90
9437;DHT22;4757;59.334;18.034;2024-02-26T18:22:12;3.40;99.90
9437;DHT22;4757;59.334;18.034;2024-02-26T18:24:40;3.30;99.90
9437;DHT22;4757;59.334;18.034;2024-02-26T18:27:08;3.40;99.90
9437;DHT22;4757;59.334;18.034;2024-02-26T18:29:36;3.50;99.90
9437;DHT22;4757;59.334;18.034;2024-02-26T18:32:03;3.40;99.90